Time;durP1;ratioP1;P1;durP2;ratioP2;P2;SDS_P1;SDS_P2;PMS_P1;PMS_P2;Temp;Humidity;BMP_temperature;BMP_pressure;BME280_temperature;BME280_humidity;BME280_pressure;Samples;Min_cycle;Max_cycle;Signal;HPM_P1;HPM_P2
2022/08/09 00:00:08;;;;;;;;;;;;;;;20.74;70.52;101101.94;1743253;81;21165;-69
2022/08/09 00:02:39;;;;;;;;;;;;;;;20.74;70.60;101097.08;1757500;81;20197;-68
2022/08/09 00:05:06;;;;;;;;;;;;;;;20.72;70.67;101098.73;1757702;81;20328;-68
2022/08/09 00:07:35;;;;;;;;;;;;;;;20.71;70.81;101093.63;1758583;81;20174;-68
2022/08/09 00:10:01;;;;;;;;;;;;;;;20.68;70.95;101091.53;1757119;81;20251;-68
2022/08/09 00:12:28;;;;;;;;;;;;;;;20.68;71.07;101097.75;1755818;81;21249;-68
2022/08/09 00:14:54;;;;;;;;;;;;;;;20.69;71.14;101096.63;1756029;81;20138;-69
2022/08/09 00:17:23;;;;;;;;;;;;;;;20.69;71.18;101096.63;1757539;81;20177;-68
2022/08/09 00:19:50;;;;;;;;;;;;;;;20.73;71.25;101100.88;1745638;81;20161;-69
2022/08/09 00:22:16;;;;;;;;;;;;;;;20.75;71.25;101095.95;1730054;81;20184;-69
2022/08/09 00:24:42;;;;;;;;;;;;;;;20.78;71.22;101098.04;1731626;81;21133;-69
2022/08/09 00:27:09;;;;;;;;;;;;;;;20.80;71.18;101098.54;1760615;81;20143;-69
2022/08/09 00:29:35;;;;;;;;;;;;;;;20.83;71.19;101099.28;1752570;81;20123;-68
2022/08/09 00:32:02;;;;;;;;;;;;;;;20.85;71.13;101095.67;1752656;81;20146;-69
2022/08/09 00:34:29;;;;;;;;;;;;;;;20.84;71.12;101093.52;1748323;81;20434;-69
2022/08/09 00:36:55;;;;;;;;;;;;;;;20.85;71.13;101087.53;1747347;81;21297;-69
2022/08/09 00:39:21;;;;;;;;;;;;;;;20.84;71.14;101094.87;1735827;81;20158;-69
2022/08/09 00:41:48;;;;;;;;;;;;;;;20.83;71.16;101089.77;1745880;81;20486;-69
2022/08/09 00:44:15;;;;;;;;;;;;;;;20.83;71.18;101100.07;1755925;81;20200;-69
2022/08/09 00:46:42;;;;;;;;;;;;;;;20.81;71.25;101102.28;1741264;81;20184;-69
2022/08/09 00:49:09;;;;;;;;;;;;;;;20.83;71.17;101100.63;1728006;81;21149;-68
2022/08/09 00:51:36;;;;;;;;;;;;;;;20.79;71.20;101088.21;1745626;81;20166;-68
2022/08/09 00:54:03;;;;;;;;;;;;;;;20.80;71.25;101094.47;1757534;81;20429;-69
2022/08/09 00:56:31;;;;;;;;;;;;;;;20.79;71.27;101086.06;1756104;81;20171;-69
2022/08/09 00:58:58;;;;;;;;;;;;;;;20.80;71.27;101093.91;1741514;81;20142;-68
2022/08/09 01:01:28;;;;;;;;;;;;;;;20.80;71.27;101099.34;1748079;81;21152;-67
2022/08/09 01:04:32;;;;;;;;;;;;;;;20.85;71.22;101107.89;1743551;81;20414;-68
2022/08/09 01:07:17;;;;;;;;;;;;;;;20.85;71.14;101108.69;1745581;81;20178;-68
2022/08/09 01:09:56;;;;;;;;;;;;;;;20.88;71.09;101099.69;1739285;81;20222;-68
2022/08/09 01:12:38;;;;;;;;;;;;;;;20.88;71.05;101094.25;1741916;81;20429;-67
2022/08/09 01:15:07;;;;;;;;;;;;;;;20.85;71.08;101092.39;1773265;80;21106;-68
2022/08/09 01:17:39;;;;;;;;;;;;;;;20.86;71.03;101094.55;1760299;80;20419;-67
2022/08/09 01:20:08;;;;;;;;;;;;;;;20.84;70.99;101090.80;1754500;79;20170;-68
2022/08/09 01:22:51;;;;;;;;;;;;;;;20.80;71.02;101087.12;1766769;79;20227;-68
2022/08/09 01:25:41;;;;;;;;;;;;;;;20.79;71.05;101090.93;1755393;81;20179;-68
2022/08/09 01:28:08;;;;;;;;;;;;;;;20.78;71.13;101092.61;1764050;81;21189;-68
2022/08/09 01:30:35;;;;;;;;;;;;;;;20.74;71.17;101093.80;1763805;81;20131;-68
2022/08/09 01:33:01;;;;;;;;;;;;;;;20.73;71.22;101089.48;1765524;81;20248;-68
2022/08/09 01:35:47;;;;;;;;;;;;;;;20.73;71.25;101092.73;1766561;81;20491;-68
2022/08/09 01:38:39;;;;;;;;;;;;;;;20.73;71.29;101098.99;1755512;81;20150;-68
2022/08/09 01:41:12;;;;;;;;;;;;;;;20.73;71.34;101096.80;1753459;81;21185;-68
2022/08/09 01:43:40;;;;;;;;;;;;;;;20.75;71.37;101098.66;1782900;79;20136;-67
2022/08/09 01:46:06;;;;;;;;;;;;;;;20.71;71.32;101098.48;1754253;80;20202;-68
2022/08/09 01:48:32;;;;;;;;;;;;;;;20.66;71.33;101093.19;1742510;81;20146;-68
2022/08/09 01:50:59;;;;;;;;;;;;;;;20.60;71.42;101099.88;1751236;80;20522;-68
2022/08/09 01:53:25;;;;;;;;;;;;;;;20.55;71.48;101096.72;1760953;81;21146;-68
2022/08/09 01:55:52;;;;;;;;;;;;;;;20.57;71.38;101095.08;1760442;80;20181;-68
2022/08/09 01:58:18;;;;;;;;;;;;;;;20.51;71.39;101090.88;1729446;81;20216;-67
2022/08/09 02:00:44;;;;;;;;;;;;;;;20.49;71.44;101091.70;1757022;80;20183;-68
2022/08/09 02:03:11;;;;;;;;;;;;;;;20.47;71.45;101099.38;1757427;81;20110;-68
2022/08/09 02:05:37;;;;;;;;;;;;;;;20.44;71.47;101104.06;1759658;81;21140;-69
2022/08/09 02:08:08;;;;;;;;;;;;;;;20.43;71.56;101104.59;1756296;81;20222;-68
2022/08/09 02:10:38;;;;;;;;;;;;;;;20.44;71.56;101101.35;1756213;80;20495;-69
2022/08/09 02:13:05;;;;;;;;;;;;;;;20.47;71.53;101100.73;1757664;81;20190;-68
2022/08/09 02:15:37;;;;;;;;;;;;;;;20.47;71.51;101096.66;1755008;81;20218;-68
2022/08/09 02:18:05;;;;;;;;;;;;;;;20.46;71.43;101099.11;1748065;80;21253;-68
2022/08/09 02:20:34;;;;;;;;;;;;;;;20.45;71.42;101098.31;1779768;79;20117;-69
2022/08/09 02:23:07;;;;;;;;;;;;;;;20.43;71.46;101091.03;1779846;80;20160;-70
2022/08/09 02:25:36;;;;;;;;;;;;;;;20.40;71.52;101087.61;1770590;80;20237;-67
2022/08/09 02:28:06;;;;;;;;;;;;;;;20.39;71.52;101086.78;1751468;80;20198;-68
2022/08/09 02:30:36;;;;;;;;;;;;;;;20.39;71.52;101088.14;1757400;81;21341;-68
2022/08/09 02:33:03;;;;;;;;;;;;;;;20.38;71.57;101093.33;1756808;81;20180;-67
2022/08/09 02:35:29;;;;;;;;;;;;;;;20.37;71.61;101089.02;1757514;81;20191;-68
2022/08/09 02:37:57;;;;;;;;;;;;;;;20.39;71.59;101096.84;1780933;80;20143;-68
2022/08/09 02:40:24;;;;;;;;;;;;;;;20.35;71.50;101095.86;1780429;80;20206;-68
2022/08/09 02:42:50;;;;;;;;;;;;;;;20.30;71.53;101097.33;1757681;81;21046;-69
2022/08/09 02:45:20;;;;;;;;;;;;;;;20.24;71.62;101096.67;1757905;81;20193;-68
2022/08/09 02:47:47;;;;;;;;;;;;;;;20.20;71.72;101105.16;1758582;81;20139;-69
2022/08/09 02:50:20;;;;;;;;;;;;;;;20.19;71.82;101106.84;1732553;81;20436;-69
2022/08/09 02:52:49;;;;;;;;;;;;;;;20.17;71.86;101101.73;1753655;81;20388;-69
2022/08/09 02:55:15;;;;;;;;;;;;;;;20.19;71.96;101106.84;1758098;81;21229;-69
2022/08/09 02:57:43;;;;;;;;;;;;;;;20.22;72.01;101115.16;1757386;81;20139;-70
2022/08/09 03:00:10;;;;;;;;;;;;;;;20.24;72.05;101112.95;1757023;80;20225;-68
2022/08/09 03:02:37;;;;;;;;;;;;;;;20.28;72.04;101121.27;1756898;81;20170;-70
2022/08/09 03:05:04;;;;;;;;;;;;;;;20.32;72.03;101123.05;1756806;81;20142;-69
2022/08/09 03:07:31;;;;;;;;;;;;;;;20.38;71.91;101125.88;1754813;81;21152;-69
2022/08/09 03:09:58;;;;;;;;;;;;;;;20.46;71.74;101119.46;1758073;80;20330;-69
2022/08/09 03:12:24;;;;;;;;;;;;;;;20.53;71.62;101123.92;1757911;81;20169;-68
2022/08/09 03:14:52;;;;;;;;;;;;;;;20.58;71.56;101123.80;1755290;81;20142;-69
2022/08/09 03:17:18;;;;;;;;;;;;;;;20.64;71.40;101124.48;1757157;81;20162;-68
2022/08/09 03:19:44;;;;;;;;;;;;;;;20.68;71.29;101121.39;1758588;81;22166;-69
2022/08/09 03:22:10;;;;;;;;;;;;;;;20.71;71.16;101117.49;1756634;81;21134;-68
2022/08/09 03:24:37;;;;;;;;;;;;;;;20.72;70.98;101122.36;1755237;81;20134;-69
2022/08/09 03:27:04;;;;;;;;;;;;;;;20.74;70.92;101113.36;1757669;81;20206;-69
2022/08/09 03:29:30;;;;;;;;;;;;;;;20.78;70.82;101112.41;1757137;81;20222;-68
2022/08/09 03:31:57;;;;;;;;;;;;;;;20.81;70.68;101113.14;1753004;81;21538;-69
2022/08/09 03:34:23;;;;;;;;;;;;;;;20.84;70.61;101113.09;1757184;81;20221;-69
2022/08/09 03:36:49;;;;;;;;;;;;;;;20.84;70.37;101113.88;1757480;81;20131;-68
2022/08/09 03:39:16;;;;;;;;;;;;;;;20.85;70.26;101113.32;1754780;81;20170;-68
2022/08/09 03:41:44;;;;;;;;;;;;;;;20.85;70.05;101119.55;1756068;81;20130;-69
2022/08/09 03:44:10;;;;;;;;;;;;;;;20.88;70.05;101114.05;1758166;81;21185;-68
2022/08/09 03:46:37;;;;;;;;;;;;;;;20.95;70.00;101123.11;1754791;81;20480;-69
2022/08/09 03:49:03;;;;;;;;;;;;;;;20.99;69.85;101122.19;1755519;81;20216;-68
2022/08/09 03:51:30;;;;;;;;;;;;;;;21.04;69.66;101123.95;1757346;81;20173;-69
2022/08/09 03:53:56;;;;;;;;;;;;;;;21.06;69.39;101117.66;1757718;81;20170;-69
2022/08/09 03:56:23;;;;;;;;;;;;;;;21.06;69.16;101119.81;1756813;81;21232;-69
2022/08/09 03:58:49;;;;;;;;;;;;;;;21.06;69.00;101121.17;1748207;81;20240;-69
2022/08/09 04:01:15;;;;;;;;;;;;;;;21.07;68.95;101115.18;1755588;80;20431;-68
2022/08/09 04:03:42;;;;;;;;;;;;;;;21.08;68.85;101116.77;1758105;81;20174;-69
2022/08/09 04:06:08;;;;;;;;;;;;;;;21.12;68.77;101122.38;1754885;81;20131;-70
2022/08/09 04:08:35;;;;;;;;;;;;;;;21.17;68.77;101118.97;1757340;81;21311;-69
2022/08/09 04:11:01;;;;;;;;;;;;;;;21.24;68.67;101120.66;1757818;81;20208;-68
2022/08/09 04:13:28;;;;;;;;;;;;;;;21.29;68.46;101112.38;1758295;81;20457;-70
2022/08/09 04:15:54;;;;;;;;;;;;;;;21.34;68.21;101109.27;1758120;81;20167;-69
2022/08/09 04:18:21;;;;;;;;;;;;;;;21.38;67.86;101111.62;1757525;80;20199;-69
2022/08/09 04:20:47;;;;;;;;;;;;;;;21.37;67.64;101115.46;1754253;81;21136;-67
2022/08/09 04:23:14;;;;;;;;;;;;;;;21.38;67.72;101115.13;1755557;81;20142;-68
2022/08/09 04:25:40;;;;;;;;;;;;;;;21.42;67.55;101116.13;1754183;81;20225;-68
2022/08/09 04:28:07;;;;;;;;;;;;;;;21.43;67.44;101116.36;1757512;81;20479;-68
2022/08/09 04:30:33;;;;;;;;;;;;;;;21.48;67.43;101111.31;1757648;81;20150;-69
2022/08/09 04:33:00;;;;;;;;;;;;;;;21.52;67.42;101117.74;1757313;81;21206;-68
2022/08/09 04:35:27;;;;;;;;;;;;;;;21.61;67.37;101116.38;1753457;81;20280;-69
2022/08/09 04:37:53;;;;;;;;;;;;;;;21.70;67.17;101117.20;1758481;81;20193;-70
2022/08/09 04:40:19;;;;;;;;;;;;;;;21.75;66.90;101108.33;1756453;81;20524;-68
2022/08/09 04:42:46;;;;;;;;;;;;;;;21.80;66.56;101114.16;1756973;81;20146;-68
2022/08/09 04:45:13;;;;;;;;;;;;;;;21.82;66.22;101113.30;1755477;81;21052;-68
2022/08/09 04:47:39;;;;;;;;;;;;;;;21.87;66.09;101108.25;1759307;81;20170;-67
2022/08/09 04:50:07;;;;;;;;;;;;;;;21.91;65.84;101097.76;1755958;81;20232;-68
2022/08/09 04:52:33;;;;;;;;;;;;;;;21.95;65.44;101097.38;1754957;81;20166;-68
2022/08/09 04:55:01;;;;;;;;;;;;;;;21.99;65.01;101097.53;1757451;81;20165;-68
2022/08/09 04:57:27;;;;;;;;;;;;;;;22.00;64.51;101099.13;1755805;80;21140;-69
2022/08/09 04:59:54;;;;;;;;;;;;;;;22.02;64.54;101100.98;1753496;81;20186;-69
2022/08/09 05:02:24;;;;;;;;;;;;;;;22.07;63.88;101102.16;1756681;81;20188;-69
2022/08/09 05:04:51;;;;;;;;;;;;;;;22.09;63.77;101108.66;1757822;81;20170;-69
2022/08/09 05:07:18;;;;;;;;;;;;;;;22.15;63.72;101112.28;1754326;81;20229;-70
2022/08/09 05:09:47;;;;;;;;;;;;;;;22.23;63.54;101104.66;1756666;81;20542;-69
2022/08/09 05:12:13;;;;;;;;;;;;;;;22.30;62.63;101109.61;1756771;81;20170;-69
2022/08/09 05:14:39;;;;;;;;;;;;;;;22.38;62.28;101114.81;1756354;81;20301;-69
2022/08/09 05:17:06;;;;;;;;;;;;;;;22.46;61.81;101115.34;1758168;81;20222;-68
2022/08/09 05:19:33;;;;;;;;;;;;;;;22.61;61.94;101114.84;1753470;81;20475;-76
2022/08/09 05:21:59;;;;;;;;;;;;;;;22.82;61.40;101111.41;1750715;81;21162;-78
2022/08/09 05:24:26;;;;;;;;;;;;;;;22.94;60.40;101117.00;1756789;81;20180;-78
2022/08/09 05:26:52;;;;;;;;;;;;;;;23.02;59.94;101117.52;1760748;81;20440;-81
2022/08/09 05:29:19;;;;;;;;;;;;;;;23.10;59.76;101113.14;1751837;81;20130;-80
2022/08/09 05:31:46;;;;;;;;;;;;;;;23.20;59.22;101117.42;1756990;81;20194;-81
2022/08/09 05:34:14;;;;;;;;;;;;;;;23.30;59.31;101114.35;1758487;81;21118;-77
2022/08/09 05:36:42;;;;;;;;;;;;;;;23.46;59.01;101115.37;1758605;81;20138;-79
2022/08/09 05:39:08;;;;;;;;;;;;;;;23.61;57.43;101113.98;1756723;81;20199;-80
2022/08/09 05:41:34;;;;;;;;;;;;;;;23.67;57.00;101113.23;1756717;81;20319;-80
2022/08/09 05:44:00;;;;;;;;;;;;;;;23.74;57.08;101110.22;1758279;81;20376;-80
2022/08/09 05:46:27;;;;;;;;;;;;;;;23.83;56.52;101111.53;1754967;81;21137;-81
2022/08/09 05:48:54;;;;;;;;;;;;;;;23.97;56.32;101117.50;1760945;81;20159;-80
2022/08/09 05:51:20;;;;;;;;;;;;;;;24.09;55.08;101116.20;1759405;81;20514;-73
2022/08/09 05:53:47;;;;;;;;;;;;;;;24.08;54.04;101111.86;1756030;81;20198;-72
2022/08/09 05:56:13;;;;;;;;;;;;;;;24.05;54.06;101107.09;1757337;81;20216;-71
2022/08/09 05:58:39;;;;;;;;;;;;;;;24.07;54.24;101117.09;1753741;81;21764;-73
2022/08/09 06:01:05;;;;;;;;;;;;;;;24.13;53.90;101120.99;1754768;81;20187;-72
2022/08/09 06:03:32;;;;;;;;;;;;;;;24.17;53.90;101110.42;1755799;81;20143;-72
2022/08/09 06:06:00;;;;;;;;;;;;;;;24.24;53.73;101116.70;1755580;81;20672;-72
2022/08/09 06:08:26;;;;;;;;;;;;;;;24.34;53.76;101116.28;1757909;81;21026;-72
2022/08/09 06:10:54;;;;;;;;;;;;;;;24.50;53.61;101116.47;1757668;81;21214;-73
2022/08/09 06:13:20;;;;;;;;;;;;;;;24.67;53.35;101116.27;1757400;81;20200;-72
2022/08/09 06:15:49;;;;;;;;;;;;;;;24.84;52.95;101113.11;1747236;81;20144;-72
2022/08/09 06:18:15;;;;;;;;;;;;;;;24.99;51.76;101105.05;1731261;81;20145;-72
2022/08/09 06:20:41;;;;;;;;;;;;;;;25.10;50.93;101107.31;1759130;81;20198;-72
2022/08/09 06:23:08;;;;;;;;;;;;;;;25.17;50.85;101118.50;1755058;81;21160;-73
2022/08/09 06:25:35;;;;;;;;;;;;;;;25.26;49.79;101121.92;1755911;81;20142;-72
2022/08/09 06:28:01;;;;;;;;;;;;;;;25.30;48.16;101125.56;1757999;81;20245;-72
2022/08/09 06:30:27;;;;;;;;;;;;;;;25.26;47.05;101120.55;1757116;81;20170;-73
2022/08/09 06:32:54;;;;;;;;;;;;;;;25.26;47.11;101117.83;1757618;81;20583;-73
2022/08/09 06:35:20;;;;;;;;;;;;;;;25.27;47.09;101124.87;1756734;81;21145;-73
2022/08/09 06:37:48;;;;;;;;;;;;;;;25.28;46.95;101118.86;1757457;81;20158;-73
2022/08/09 06:40:14;;;;;;;;;;;;;;;25.32;47.52;101124.66;1755017;81;20167;-78
2022/08/09 06:42:41;;;;;;;;;;;;;;;25.33;46.21;101124.08;1758911;81;20608;-81
2022/08/09 06:45:09;;;;;;;;;;;;;;;25.31;46.37;101135.95;1758835;81;20500;-77
2022/08/09 06:47:35;;;;;;;;;;;;;;;25.28;46.03;101132.53;1757856;81;21176;-76
2022/08/09 06:50:04;;;;;;;;;;;;;;;25.22;45.54;101133.33;1758333;81;20173;-78
2022/08/09 06:52:30;;;;;;;;;;;;;;;25.20;44.35;101128.76;1758518;81;20134;-78
2022/08/09 06:54:57;;;;;;;;;;;;;;;25.19;44.57;101129.91;1757056;81;20662;-76
2022/08/09 06:57:24;;;;;;;;;;;;;;;25.20;44.44;101139.12;1758668;81;20196;-79
2022/08/09 06:59:51;;;;;;;;;;;;;;;25.22;44.64;101137.42;1733214;81;21072;-70
2022/08/09 07:02:17;;;;;;;;;;;;;;;25.30;45.14;101137.07;1758003;81;20460;-75
2022/08/09 07:04:43;;;;;;;;;;;;;;;25.34;45.41;101132.53;1756293;81;20145;-71
2022/08/09 07:07:09;;;;;;;;;;;;;;;25.36;44.52;101136.50;1758739;81;20174;-70
2022/08/09 07:09:35;;;;;;;;;;;;;;;25.40;42.84;101133.33;1758950;81;20241;-70
2022/08/09 07:12:04;;;;;;;;;;;;;;;25.48;42.50;101125.55;1759465;81;21885;-70
2022/08/09 07:14:31;;;;;;;;;;;;;;;25.54;42.47;101130.80;1755267;81;20460;-71
2022/08/09 07:16:58;;;;;;;;;;;;;;;25.62;42.79;101132.59;1740737;80;20205;-82
2022/08/09 07:19:25;;;;;;;;;;;;;;;25.71;43.13;101133.27;1758353;81;20471;-69
2022/08/09 07:21:56;;;;;;;;;;;;;;;25.80;43.91;101129.01;1758145;81;20494;-73
2022/08/09 07:24:22;;;;;;;;;;;;;;;25.94;44.20;101130.84;1760306;81;21128;-71
2022/08/09 07:26:49;;;;;;;;;;;;;;;26.09;44.01;101138.87;1759954;81;20181;-73
2022/08/09 07:29:16;;;;;;;;;;;;;;;26.17;43.48;101137.94;1755445;81;20200;-71
2022/08/09 07:31:43;;;;;;;;;;;;;;;26.23;43.54;101138.49;1758258;81;20535;-73
2022/08/09 07:34:11;;;;;;;;;;;;;;;26.27;43.14;101136.06;1759101;81;20209;-83
2022/08/09 07:36:44;;;;;;;;;;;;;;;26.33;42.83;101132.51;1757817;81;21764;-71
2022/08/09 07:39:17;;;;;;;;;;;;;;;26.33;42.48;101137.98;1732369;81;20148;-74
2022/08/09 07:41:43;;;;;;;;;;;;;;;26.24;42.74;101137.34;1729171;83;20176;-72
2022/08/09 07:44:09;;;;;;;;;;;;;;;26.18;42.87;101132.67;1778093;80;20172;-72
2022/08/09 07:46:36;;;;;;;;;;;;;;;26.23;43.10;101133.02;1754740;81;20436;-72
2022/08/09 07:49:02;;;;;;;;;;;;;;;26.28;41.75;101125.33;1749552;81;21176;-71
2022/08/09 07:51:29;;;;;;;;;;;;;;;26.28;41.37;101125.33;1757802;81;20142;-71
2022/08/09 07:53:56;;;;;;;;;;;;;;;26.36;42.00;101127.12;1757464;81;20197;-71
2022/08/09 07:56:24;;;;;;;;;;;;;;;26.50;41.74;101132.79;1754918;81;20408;-70
2022/08/09 07:58:50;;;;;;;;;;;;;;;26.62;41.98;101129.95;1758471;81;20247;-71
2022/08/09 08:01:17;;;;;;;;;;;;;;;26.84;42.05;101138.95;1757810;81;21549;-71
2022/08/09 08:03:43;;;;;;;;;;;;;;;26.96;40.87;101142.77;1756372;81;20202;-71
2022/08/09 08:06:10;;;;;;;;;;;;;;;27.00;40.07;101145.80;1757977;81;20194;-72
2022/08/09 08:08:37;;;;;;;;;;;;;;;27.00;39.11;101146.38;1759077;81;20227;-71
2022/08/09 08:11:04;;;;;;;;;;;;;;;26.96;37.97;101134.55;1757877;81;20238;-70
2022/08/09 08:13:30;;;;;;;;;;;;;;;26.88;37.83;101150.81;1781287;80;21290;-72
2022/08/09 08:15:56;;;;;;;;;;;;;;;26.74;38.44;101150.44;1750030;80;20182;-71
2022/08/09 08:18:22;;;;;;;;;;;;;;;26.69;39.45;101152.09;1753835;81;20895;-71
2022/08/09 08:20:49;;;;;;;;;;;;;;;26.67;38.26;101157.11;1750642;81;20237;-70
2022/08/09 08:23:19;;;;;;;;;;;;;;;26.57;37.35;101157.62;1763553;81;20281;-69
2022/08/09 08:25:46;;;;;;;;;;;;;;;26.53;37.78;101158.91;1743298;82;21016;-71
2022/08/09 08:28:13;;;;;;;;;;;;;;;26.55;39.48;101163.44;1719198;80;21042;-70
2022/08/09 08:30:39;;;;;;;;;;;;;;;26.60;40.19;101172.00;1779332;80;20183;-72
2022/08/09 08:33:05;;;;;;;;;;;;;;;26.60;40.44;101165.94;1756920;81;20198;-70
2022/08/09 08:35:34;;;;;;;;;;;;;;;26.63;40.65;101162.50;1758020;81;20190;-72
2022/08/09 08:38:01;;;;;;;;;;;;;;;26.73;41.07;101165.87;1760898;81;21132;-71
2022/08/09 08:40:29;;;;;;;;;;;;;;;26.86;41.17;101161.33;1760801;81;20174;-70
2022/08/09 08:42:55;;;;;;;;;;;;;;;26.99;40.79;101158.51;1757240;81;20199;-71
2022/08/09 08:45:28;;;;;;;;;;;;;;;27.10;40.28;101167.78;1758053;81;20181;-72
2022/08/09 08:47:54;;;;;;;;;;;;;;;27.16;39.59;101162.86;1759484;81;20218;-69
2022/08/09 08:50:21;;;;;;;;;;;;;;;27.17;39.57;101161.70;1758865;81;21207;-71
2022/08/09 08:52:47;;;;;;;;;;;;;;;27.14;39.28;101159.09;1752242;81;20527;-70
2022/08/09 08:55:14;;;;;;;;;;;;;;;27.04;39.86;101152.16;1757940;81;20185;-70
2022/08/09 08:57:41;;;;;;;;;;;;;;;26.96;40.27;101152.36;1757572;81;20142;-69
2022/08/09 09:00:09;;;;;;;;;;;;;;;26.88;40.46;101150.00;1758441;81;20149;-71
2022/08/09 09:02:35;;;;;;;;;;;;;;;26.79;39.94;101138.44;1758728;81;21134;-71
2022/08/09 09:05:01;;;;;;;;;;;;;;;26.75;39.69;101144.38;1760317;81;20126;-71
2022/08/09 09:07:31;;;;;;;;;;;;;;;26.67;40.14;101136.56;1737555;81;20155;-71
2022/08/09 09:09:57;;;;;;;;;;;;;;;26.73;40.31;101144.75;1730732;81;20176;-71
2022/08/09 09:12:26;;;;;;;;;;;;;;;26.88;40.66;101143.97;1730342;83;20200;-71
2022/08/09 09:14:53;;;;;;;;;;;;;;;26.97;39.43;101147.88;1730654;83;21131;-70
2022/08/09 09:17:20;;;;;;;;;;;;;;;26.95;38.56;101145.27;1737124;81;20158;-73
2022/08/09 09:19:46;;;;;;;;;;;;;;;26.85;38.52;101146.04;1757508;81;20142;-70
2022/08/09 09:22:18;;;;;;;;;;;;;;;26.78;38.53;101140.36;1756230;81;20169;-71
2022/08/09 09:24:47;;;;;;;;;;;;;;;26.77;38.36;101131.13;1756422;81;20460;-70
2022/08/09 09:27:16;;;;;;;;;;;;;;;26.77;37.80;101132.50;1755195;81;21653;-72
2022/08/09 09:29:43;;;;;;;;;;;;;;;26.74;36.29;101135.95;1757767;81;20501;-71
2022/08/09 09:32:10;;;;;;;;;;;;;;;26.67;36.31;101135.19;1757764;81;20487;-70
2022/08/09 09:34:37;;;;;;;;;;;;;;;26.62;37.04;101135.44;1759969;81;20138;-71
2022/08/09 09:37:05;;;;;;;;;;;;;;;26.61;36.84;101137.96;1759660;81;20174;-72
2022/08/09 09:39:31;;;;;;;;;;;;;;;26.64;37.06;101146.27;1759210;81;21798;-72
2022/08/09 09:41:58;;;;;;;;;;;;;;;26.71;37.28;101142.92;1759194;81;20178;-73
2022/08/09 09:44:27;;;;;;;;;;;;;;;26.65;38.21;101144.32;1760952;81;20142;-71
2022/08/09 09:47:10;;;;;;;;;;;;;;;26.62;38.22;101152.70;1759870;81;20469;-71
2022/08/09 09:49:37;;;;;;;;;;;;;;;26.59;38.14;101147.12;1759674;81;20429;-72
2022/08/09 09:52:07;;;;;;;;;;;;;;;26.56;37.73;101149.20;1759905;81;21156;-72
2022/08/09 09:54:36;;;;;;;;;;;;;;;26.55;37.84;101142.89;1760524;81;20170;-71
2022/08/09 09:57:12;;;;;;;;;;;;;;;26.59;37.52;101138.91;1759479;81;20142;-71
2022/08/09 09:59:38;;;;;;;;;;;;;;;26.64;37.76;101138.63;1784115;80;20133;-71
2022/08/09 10:02:05;;;;;;;;;;;;;;;26.71;38.03;101139.39;1756999;81;20143;-72
2022/08/09 10:04:32;;;;;;;;;;;;;;;26.70;37.45;101134.48;1758624;81;21162;-71
2022/08/09 10:07:13;;;;;;;;;;;;;;;26.62;37.74;101132.70;1760426;81;20163;-72
2022/08/09 10:09:47;;;;;;;;;;;;;;;26.57;38.30;101132.97;1755556;81;20241;-71
2022/08/09 10:12:29;;;;;;;;;;;;;;;26.56;38.66;101132.76;1760773;81;20166;-72
2022/08/09 10:15:10;;;;;;;;;;;;;;;26.61;38.07;101135.22;1760829;81;21204;-72
2022/08/09 10:17:35;;;;;;;;;;;;;;;26.71;38.29;101133.33;1785300;80;21127;-72
2022/08/09 10:20:08;;;;;;;;;;;;;;;26.79;38.10;101145.28;1760450;81;20150;-71
2022/08/09 10:22:36;;;;;;;;;;;;;;;26.79;38.06;101139.23;1784321;80;20189;-70
2022/08/09 10:25:04;;;;;;;;;;;;;;;26.78;37.88;101141.73;1752424;82;20178;-70
2022/08/09 10:27:31;;;;;;;;;;;;;;;26.82;37.47;101134.41;1780179;80;20435;-71
2022/08/09 10:30:02;;;;;;;;;;;;;;;26.83;37.46;101133.83;1779948;80;21523;-71
2022/08/09 10:32:28;;;;;;;;;;;;;;;26.84;37.73;101128.56;1753146;80;20236;-71
2022/08/09 10:34:55;;;;;;;;;;;;;;;26.83;37.90;101129.72;1759374;81;20142;-70
2022/08/09 10:37:23;;;;;;;;;;;;;;;26.76;38.46;101122.12;1753498;81;20192;-72
2022/08/09 10:39:49;;;;;;;;;;;;;;;26.80;38.75;101124.37;1745098;81;20204;-70
2022/08/09 10:42:17;;;;;;;;;;;;;;;26.86;38.69;101120.80;1760992;81;21036;-71
2022/08/09 10:44:49;;;;;;;;;;;;;;;26.86;38.39;101109.83;1759938;81;21085;-71
2022/08/09 10:47:30;;;;;;;;;;;;;;;26.78;38.35;101117.64;1733026;81;20202;-72
2022/08/09 10:50:19;;;;;;;;;;;;;;;26.76;38.92;101111.73;1755797;81;20167;-71
2022/08/09 10:53:04;;;;;;;;;;;;;;;26.78;38.91;101112.16;1758073;81;20229;-71
2022/08/09 10:55:33;;;;;;;;;;;;;;;26.83;39.17;101109.95;1750311;81;21155;-70
2022/08/09 10:58:00;;;;;;;;;;;;;;;26.83;38.80;101112.70;1757319;81;20127;-72
2022/08/09 11:00:37;;;;;;;;;;;;;;;26.77;38.69;101112.73;1754836;81;20167;-71
2022/08/09 11:03:22;;;;;;;;;;;;;;;26.68;38.86;101118.17;1757916;81;20160;-70
2022/08/09 11:06:17;;;;;;;;;;;;;;;26.63;38.67;101119.23;1757749;81;20488;-70
2022/08/09 11:08:45;;;;;;;;;;;;;;;26.56;38.94;101103.99;1757697;81;21674;-71
2022/08/09 11:11:12;;;;;;;;;;;;;;;26.53;39.52;101099.22;1757477;80;20537;-70
2022/08/09 11:13:38;;;;;;;;;;;;;;;26.49;39.74;101096.94;1758541;81;20185;-70
2022/08/09 11:16:38;;;;;;;;;;;;;;;26.46;39.33;101097.63;1757931;81;20174;-70
2022/08/09 11:19:05;;;;;;;;;;;;;;;26.43;39.57;101095.81;1760266;81;20150;-72
2022/08/09 11:21:52;;;;;;;;;;;;;;;26.49;39.46;101101.86;1760324;81;21075;-71
2022/08/09 11:24:20;;;;;;;;;;;;;;;26.52;38.61;101092.13;1758523;81;20197;-71
2022/08/09 11:26:49;;;;;;;;;;;;;;;26.54;38.25;101096.69;1742636;81;20141;-71
2022/08/09 11:29:35;;;;;;;;;;;;;;;26.58;37.97;101092.09;1754222;80;20147;-71
2022/08/09 11:32:02;;;;;;;;;;;;;;;26.62;36.14;101102.55;1751102;81;20184;-70
2022/08/09 11:34:36;;;;;;;;;;;;;;;26.49;36.47;101102.41;1756404;80;21127;-71
2022/08/09 11:37:03;;;;;;;;;;;;;;;26.47;36.50;101101.95;1731179;81;20141;-70
2022/08/09 11:39:29;;;;;;;;;;;;;;;26.45;36.30;101096.81;1756456;80;20481;-70
2022/08/09 11:41:56;;;;;;;;;;;;;;;26.39;36.10;101101.77;1755875;80;20162;-71
2022/08/09 11:44:25;;;;;;;;;;;;;;;26.28;33.71;101096.57;1753869;82;20170;-70
2022/08/09 11:46:56;;;;;;;;;;;;;;;26.16;34.32;101096.66;1752509;80;21269;-70
2022/08/09 11:49:57;;;;;;;;;;;;;;;26.10;35.31;101092.57;1745330;82;20138;-70
2022/08/09 11:52:24;;;;;;;;;;;;;;;26.09;36.08;101095.06;1715680;83;20146;-70
2022/08/09 11:55:28;;;;;;;;;;;;;;;26.11;36.39;101092.20;1722208;82;20123;-71
2022/08/09 11:57:55;;;;;;;;;;;;;;;26.06;36.81;101092.48;1752432;82;20119;-70
2022/08/09 12:00:22;;;;;;;;;;;;;;;25.99;37.47;101097.73;1730513;83;21166;-70
2022/08/09 12:02:48;;;;;;;;;;;;;;;25.99;37.65;101091.46;1730401;82;20149;-71
2022/08/09 12:05:15;;;;;;;;;;;;;;;26.03;37.68;101083.59;1730660;82;20137;-72
2022/08/09 12:07:41;;;;;;;;;;;;;;;26.09;37.56;101087.64;1739778;81;20142;-71
2022/08/09 12:10:10;;;;;;;;;;;;;;;26.15;37.45;101088.20;1760645;81;20301;-70
2022/08/09 12:12:45;;;;;;;;;;;;;;;26.18;37.66;101089.66;1751394;81;21890;-70
2022/08/09 12:15:23;;;;;;;;;;;;;;;26.24;37.64;101083.94;1753969;82;20151;-71
2022/08/09 12:17:50;;;;;;;;;;;;;;;26.24;37.92;101090.21;1754425;82;20141;-71
2022/08/09 12:20:22;;;;;;;;;;;;;;;26.28;38.05;101090.30;1753947;82;20155;-72
2022/08/09 12:22:54;;;;;;;;;;;;;;;26.36;38.12;101085.25;1754572;80;20189;-71
2022/08/09 12:25:21;;;;;;;;;;;;;;;26.43;38.03;101094.44;1779916;80;21138;-70
2022/08/09 12:27:47;;;;;;;;;;;;;;;26.49;38.43;101096.39;1779945;80;20475;-71
2022/08/09 12:30:14;;;;;;;;;;;;;;;26.61;38.03;101097.66;1754273;81;20139;-71
2022/08/09 12:32:40;;;;;;;;;;;;;;;26.70;38.12;101100.81;1757003;81;20205;-70
2022/08/09 12:35:07;;;;;;;;;;;;;;;26.74;37.81;101098.37;1757877;81;20166;-70
2022/08/09 12:37:36;;;;;;;;;;;;;;;26.73;37.92;101100.90;1760810;81;21060;-69
2022/08/09 12:40:07;;;;;;;;;;;;;;;26.66;38.01;101095.24;1759759;81;20177;-74
2022/08/09 12:42:34;;;;;;;;;;;;;;;26.58;38.25;101094.83;1757921;81;20150;-70